createdAt,value
2023-01-22T00:04:13.009Z,18.223466
2023-01-22T00:09:14.722Z,18.014006
2023-01-22T00:14:16.688Z,17.843016
2023-01-22T00:19:18.155Z,18.152592
2023-01-22T00:24:19.724Z,17.977368
2023-01-22T00:29:21.209Z,17.702042
2023-01-22T00:34:22.765Z,17.408898
2023-01-22T00:39:24.689Z,18.003408
2023-01-22T00:44:26.501Z,18.058406
2023-01-22T00:49:28.074Z,18.239804
2023-01-22T00:54:29.671Z,17.361676
2023-01-22T00:59:31.179Z,16.810766
2023-01-22T01:04:32.735Z,17.2673
2023-01-22T01:09:34.453Z,17.124752
2023-01-22T01:14:36.119Z,16.862412
2023-01-22T01:19:37.613Z,16.707054
2023-01-22T01:24:39.088Z,17.020592
2023-01-22T01:29:41.150Z,16.814918
2023-01-22T01:34:43.034Z,16.7706
2023-01-22T01:39:44.819Z,16.379742
2023-01-22T01:44:47.005Z,16.273724
2023-01-22T01:49:48.981Z,17.048912
2023-01-22T01:54:51.026Z,17.075834
2023-01-22T01:59:52.764Z,16.514448
2023-01-22T02:04:54.271Z,16.345764
2023-01-22T02:09:55.749Z,15.87448
2023-01-22T02:14:57.592Z,15.671466
2023-01-22T02:19:59.093Z,15.75956
2023-01-22T02:25:00.572Z,16.11458
2023-01-22T02:30:02.437Z,15.684262
2023-01-22T02:35:03.913Z,15.840678
2023-01-22T02:40:05.521Z,15.90759
2023-01-22T02:45:07.670Z,15.919762
2023-01-22T02:50:09.120Z,15.92348
2023-01-22T02:55:10.766Z,15.876434
2023-01-22T03:00:12.294Z,15.782248
2023-01-22T03:05:14.124Z,15.840054
2023-01-22T03:10:15.778Z,15.950402
2023-01-22T03:15:17.508Z,16.295978
2023-01-22T03:20:19.547Z,15.946426
2023-01-22T03:25:21.112Z,15.882608
2023-01-22T03:30:23.116Z,15.214674
2023-01-22T03:35:24.673Z,15.85798
2023-01-22T03:40:26.166Z,15.036194
2023-01-22T03:45:27.838Z,15.498984
2023-01-22T03:50:29.356Z,15.003804
2023-01-22T03:55:30.846Z,15.244772
2023-01-22T04:00:32.976Z,15.254488
2023-01-22T04:05:34.473Z,14.999204
2023-01-22T04:10:36.038Z,15.505158
2023-01-22T04:15:38.088Z,14.989936
2023-01-22T04:20:39.875Z,15.525648
2023-01-22T04:25:41.831Z,15.698388
2023-01-22T04:30:44.070Z,15.093838
2023-01-22T04:35:45.986Z,15.528552
2023-01-22T04:40:47.887Z,15.203372
2023-01-22T04:45:49.642Z,15.79054
2023-01-22T04:50:51.501Z,15.452292
2023-01-22T04:55:53.318Z,15.510898
2023-01-22T05:00:54.916Z,16.551954
2023-01-22T05:05:56.950Z,17.626568
2023-01-22T05:10:58.805Z,18.12795
2023-01-22T05:16:00.547Z,18.49924
2023-01-22T05:21:02.265Z,19.806818
2023-01-22T05:26:03.780Z,19.979694
2023-01-22T05:31:05.545Z,20.388912
2023-01-22T05:36:07.027Z,21.383318
2023-01-22T05:41:08.832Z,21.115414
2023-01-22T05:46:11.529Z,22.292942
2023-01-22T05:51:13.363Z,22.240604
2023-01-22T05:56:15.261Z,21.846896
2023-01-22T06:01:17.227Z,22.99031
2023-01-22T06:06:18.679Z,23.557872
2023-01-22T06:11:20.355Z,23.987296
2023-01-22T06:16:22.106Z,24.137362
2023-01-22T06:21:23.620Z,22.80267
2023-01-22T06:26:25.317Z,23.838302
2023-01-22T06:31:27.138Z,25.69788
2023-01-22T06:36:28.771Z,24.56551
2023-01-22T06:41:30.415Z,24.492642
2023-01-22T06:46:32.509Z,25.334174
2023-01-22T06:51:34.454Z,25.096014
2023-01-22T06:56:36.113Z,26.574246
2023-01-22T07:01:37.929Z,25.723242
2023-01-22T07:06:39.450Z,26.74327
2023-01-22T07:11:40.954Z,27.40293
2023-01-22T07:16:42.738Z,27.046484
2023-01-22T07:21:44.320Z,27.438008
2023-01-22T07:26:46.056Z,27.62961
2023-01-22T07:31:49.783Z,26.84876
2023-01-22T07:36:51.997Z,27.06217
2023-01-22T07:41:53.909Z,28.264994
2023-01-22T07:46:56.079Z,27.517866
2023-01-22T07:51:57.812Z,28.403542
2023-01-22T08:02:05.350Z,28.492708
2023-01-22T08:07:06.842Z,28.748726
2023-01-22T08:12:08.699Z,29.937208
2023-01-22T08:17:10.711Z,28.961036
2023-01-22T08:22:12.625Z,29.234478
2023-01-22T08:27:14.541Z,29.902322
2023-01-22T08:32:16.652Z,30.396718
2023-01-22T08:37:18.595Z,29.716294
2023-01-22T08:42:20.121Z,30.017528
2023-01-22T08:47:21.899Z,29.846048
2023-01-22T08:52:23.675Z,31.01183
2023-01-22T08:57:25.233Z,30.55673
2023-01-22T09:02:26.898Z,32.108542
2023-01-22T09:07:28.612Z,31.566028
2023-01-22T09:12:30.171Z,32.221984
2023-01-22T09:17:31.833Z,32.420182
2023-01-22T09:22:33.455Z,30.558048
2023-01-22T09:27:35.063Z,32.979916
2023-01-22T09:32:36.909Z,32.225296
2023-01-22T09:37:38.620Z,30.198098
2023-01-22T09:42:40.237Z,31.775922
2023-01-22T09:47:42.247Z,31.503566
2023-01-22T09:52:44.064Z,31.632246
2023-01-22T09:57:45.541Z,32.23037
2023-01-22T10:02:47.249Z,32.565852
2023-01-22T10:07:48.883Z,31.485018
2023-01-22T10:12:50.385Z,31.654746
2023-01-22T10:17:52.483Z,32.726096
2023-01-22T10:22:54.600Z,32.564754
2023-01-22T10:27:56.371Z,32.363896
2023-01-22T10:32:58.145Z,33.588868
2023-01-22T10:37:59.654Z,32.23368
2023-01-22T10:43:01.132Z,32.966454
2023-01-22T10:48:02.968Z,32.465654
2023-01-22T10:53:04.540Z,32.213152
2023-01-22T10:58:06.037Z,32.33719
2023-01-22T11:03:07.923Z,32.948136
2023-01-22T11:08:09.344Z,33.578718
2023-01-22T11:13:10.756Z,34.26978
2023-01-22T11:18:12.530Z,33.771406
2023-01-22T11:23:13.997Z,34.269332
2023-01-22T11:28:15.589Z,34.070688
2023-01-22T11:33:17.521Z,32.553926
2023-01-22T11:38:19.277Z,34.3574
2023-01-22T11:43:20.741Z,32.363678
2023-01-22T11:48:22.526Z,31.745024
2023-01-22T11:53:23.947Z,31.820946
2023-01-22T11:58:25.443Z,33.570332
2023-01-22T12:03:27.020Z,31.298528
2023-01-22T12:08:28.479Z,33.207696
2023-01-22T12:13:30.044Z,33.575842
2023-01-22T12:18:31.710Z,32.269666
2023-01-22T12:23:33.231Z,32.601392
2023-01-22T12:28:34.869Z,33.094242
2023-01-22T12:33:36.329Z,34.062084
2023-01-22T12:38:37.936Z,32.438056
2023-01-22T12:43:39.401Z,32.950334
2023-01-22T12:48:41.400Z,33.86896
2023-01-22T12:53:42.860Z,34.11373
2023-01-22T12:58:44.795Z,33.350492
2023-01-22T13:03:46.388Z,30.434442
2023-01-22T13:08:48.308Z,32.615734
2023-01-22T13:13:50.283Z,31.875468
2023-01-22T13:18:52.370Z,32.982128
2023-01-22T13:23:54.206Z,31.165886
2023-01-22T13:28:56.163Z,32.008112
2023-01-22T13:33:58.232Z,33.017438
2023-01-22T13:39:00.108Z,32.320648
2023-01-22T13:44:02.073Z,33.355566
2023-01-22T13:49:04.162Z,32.018928
2023-01-22T13:54:06.015Z,32.663418
2023-01-22T13:59:07.786Z,31.858914
2023-01-22T14:04:09.683Z,31.78542
2023-01-22T14:09:11.501Z,32.582624
2023-01-22T14:14:13.293Z,31.933508
2023-01-22T14:19:15.294Z,31.508206
2023-01-22T14:24:17.138Z,31.451268
2023-01-22T14:29:18.917Z,32.103902
2023-01-22T14:34:20.955Z,30.993728
2023-01-22T14:39:22.396Z,30.646126
2023-01-22T14:44:23.991Z,32.046962
2023-01-22T14:49:25.756Z,31.556094
2023-01-22T14:54:27.520Z,31.132558
2023-01-22T14:59:29.055Z,30.51062
2023-01-22T15:04:30.612Z,31.940142
2023-01-22T15:09:32.194Z,30.911184
2023-01-22T15:14:33.741Z,31.05753
2023-01-22T15:19:41.231Z,30.146682
2023-01-22T15:24:43.333Z,30.42387
2023-01-22T15:29:45.098Z,30.429622
2023-01-22T15:34:46.947Z,29.671258
2023-01-22T15:39:48.708Z,29.56996
2023-01-22T15:44:50.489Z,29.423178
2023-01-22T15:49:52.478Z,29.927506
2023-01-22T15:54:54.548Z,30.253694
2023-01-22T15:59:56.471Z,29.68803
2023-01-22T16:04:58.585Z,29.013782
2023-01-22T16:10:00.437Z,28.550324
2023-01-22T16:15:02.229Z,28.45915
2023-01-22T16:20:04.197Z,28.055494
2023-01-22T16:25:06.175Z,28.163184
2023-01-22T16:30:08.187Z,28.565076
2023-01-22T16:35:10.198Z,28.739432
2023-01-22T16:40:11.990Z,27.808258
2023-01-22T16:45:13.749Z,27.754222
2023-01-22T16:50:15.454Z,27.925498
2023-01-22T16:55:16.951Z,27.635718
2023-01-22T17:00:19.269Z,26.99568
2023-01-22T17:05:21.535Z,27.095918
2023-01-22T17:10:23.032Z,26.265608
2023-01-22T17:15:24.531Z,26.179562
2023-01-22T17:20:26.302Z,26.11645
2023-01-22T17:25:27.855Z,25.294566
2023-01-22T17:30:29.617Z,24.787402
2023-01-22T17:35:31.601Z,25.236108
2023-01-22T17:40:33.392Z,24.84567
2023-01-22T17:45:35.042Z,24.2593
2023-01-22T17:50:37.146Z,24.803088
2023-01-22T17:55:39.089Z,24.250032
2023-01-22T18:00:40.731Z,24.170432
2023-01-22T18:05:42.709Z,23.572392
2023-01-22T18:10:44.612Z,23.963414
2023-01-22T18:15:46.639Z,23.464202
2023-01-22T18:20:48.853Z,23.449642
2023-01-22T18:25:50.635Z,23.22497
2023-01-22T18:30:52.584Z,23.113306
2023-01-22T18:35:54.694Z,22.96613
2023-01-22T18:40:56.516Z,22.535146
2023-01-22T18:45:58.163Z,22.788056
2023-01-22T18:51:00.197Z,22.216912
2023-01-22T18:56:02.059Z,21.916766
2023-01-22T19:01:03.868Z,22.138344
2023-01-22T19:06:05.805Z,21.537428
2023-01-22T19:11:07.850Z,21.541852
2023-01-22T19:16:09.794Z,21.529246
2023-01-22T19:21:11.815Z,21.594624
2023-01-22T19:26:13.615Z,21.575138
2023-01-22T19:31:15.383Z,21.580932
2023-01-22T19:36:17.589Z,21.236658
2023-01-22T19:41:19.085Z,21.02827
2023-01-22T19:46:20.933Z,21.051664
2023-01-22T19:51:23.004Z,20.768304
2023-01-22T19:56:24.548Z,19.81652
2023-01-22T20:01:26.235Z,20.070312
2023-01-22T20:06:28.185Z,20.653614
2023-01-22T20:11:29.867Z,20.784262
2023-01-22T20:16:31.572Z,20.212236
2023-01-22T20:21:33.275Z,19.868478
2023-01-22T20:26:34.844Z,19.985882
2023-01-22T20:31:36.379Z,20.028436
2023-01-22T20:36:37.956Z,20.066214
2023-01-22T20:41:39.404Z,19.834418
2023-01-22T20:46:41.086Z,19.805732
2023-01-22T20:51:42.854Z,20.569116
2023-01-22T20:56:44.461Z,20.340672
2023-01-22T21:01:46.147Z,19.373894
2023-01-22T21:06:48.388Z,19.233978
2023-01-22T21:11:49.894Z,19.150308
2023-01-22T21:16:51.692Z,19.681408
2023-01-22T21:27:04.023Z,19.149114
2023-01-22T21:32:05.728Z,18.925094
2023-01-22T21:37:07.274Z,18.659578
2023-01-22T21:42:09.080Z,19.0568
2023-01-22T21:47:11.194Z,18.750046
2023-01-22T21:52:12.737Z,19.273764
2023-01-22T21:57:14.510Z,18.898158
2023-01-22T22:02:16.610Z,19.300496
2023-01-22T22:07:18.597Z,18.950428
2023-01-22T22:12:20.469Z,18.749164
2023-01-22T22:17:22.343Z,18.69627
2023-01-22T22:22:23.810Z,18.339906
2023-01-22T22:27:27.671Z,18.553722
2023-01-22T22:32:29.304Z,18.916952
2023-01-22T22:37:30.921Z,18.667584
2023-01-22T22:42:32.365Z,18.985112
2023-01-22T22:47:34.073Z,18.121802
2023-01-22T22:52:35.590Z,17.968466
2023-01-22T22:57:37.685Z,17.816636
2023-01-22T23:02:39.430Z,17.801018
2023-01-22T23:07:41.111Z,18.104854
2023-01-22T23:12:43.155Z,17.957
2023-01-22T23:17:44.929Z,18.005104
2023-01-22T23:22:46.693Z,18.118166
2023-01-22T23:27:49.594Z,17.488524
2023-01-22T23:32:51.453Z,18.463932
2023-01-22T23:37:53.259Z,17.329462
2023-01-22T23:42:54.942Z,17.061734
2023-01-22T23:47:56.831Z,16.945484
2023-01-22T23:52:58.594Z,17.135892
2023-01-22T23:58:01.070Z,17.245602
